createdAt,value
2023-03-29T00:01:52.396Z,2.28
2023-03-29T00:04:22.207Z,2.28
2023-03-29T00:06:50.570Z,2.30
2023-03-29T00:09:18.346Z,2.40
2023-03-29T00:11:45.397Z,2.20
2023-03-29T00:14:12.979Z,2.00
2023-03-29T00:16:39.840Z,2.30
2023-03-29T00:19:06.607Z,2.30
2023-03-29T00:21:33.256Z,2.13
2023-03-29T00:23:59.967Z,2.35
2023-03-29T00:26:26.851Z,2.40
2023-03-29T00:28:54.098Z,1.98
2023-03-29T00:31:21.236Z,2.35
2023-03-29T00:33:48.038Z,2.10
2023-03-29T00:36:16.060Z,2.50
2023-03-29T00:38:42.829Z,2.20
2023-03-29T00:41:09.702Z,2.30
2023-03-29T00:43:58.061Z,2.13
2023-03-29T00:46:26.081Z,2.40
2023-03-29T00:48:56.634Z,2.10
2023-03-29T00:51:25.512Z,2.33
2023-03-29T00:53:56.651Z,2.25
2023-03-29T00:56:29.951Z,2.22
2023-03-29T00:58:59.292Z,2.10
2023-03-29T01:01:50.539Z,2.15
2023-03-29T01:04:25.570Z,2.55
2023-03-29T01:07:03.637Z,2.38
2023-03-29T01:09:31.501Z,2.45
2023-03-29T01:12:01.767Z,2.20
2023-03-29T01:14:36.736Z,2.53
2023-03-29T01:17:04.686Z,2.50
2023-03-29T01:19:35.228Z,2.50
2023-03-29T01:22:29.832Z,2.30
2023-03-29T01:25:07.150Z,2.40
2023-03-29T01:27:57.335Z,2.35
2023-03-29T01:30:27.778Z,2.50
2023-03-29T01:32:59.224Z,2.50
2023-03-29T01:35:48.485Z,2.35
2023-03-29T01:38:23.435Z,2.47
2023-03-29T01:40:50.333Z,2.35
2023-03-29T01:43:17.609Z,2.45
2023-03-29T01:45:48.415Z,2.75
2023-03-29T01:48:27.150Z,2.58
2023-03-29T01:50:57.672Z,2.60
2023-03-29T01:53:31.615Z,2.63
2023-03-29T01:56:12.515Z,2.30
2023-03-29T01:58:45.314Z,2.30
2023-03-29T02:01:17.708Z,2.33
2023-03-29T02:03:49.853Z,2.38
2023-03-29T02:06:20.690Z,2.30
2023-03-29T02:08:47.981Z,2.58
2023-03-29T02:11:14.720Z,2.20
2023-03-29T02:13:41.611Z,2.30
2023-03-29T02:16:12.254Z,2.53
2023-03-29T02:18:44.642Z,2.50
2023-03-29T02:21:35.851Z,2.30
2023-03-29T02:24:06.642Z,2.60
2023-03-29T02:26:33.739Z,2.30
2023-03-29T02:29:00.716Z,2.70
2023-03-29T02:31:33.975Z,2.40
2023-03-29T02:34:29.800Z,2.40
2023-03-29T02:37:03.139Z,2.53
2023-03-29T02:39:32.268Z,2.33
2023-03-29T02:41:59.619Z,2.33
2023-03-29T02:44:28.774Z,2.53
2023-03-29T02:47:03.660Z,2.20
2023-03-29T02:49:30.408Z,2.72
2023-03-29T02:52:03.355Z,2.50
2023-03-29T02:54:31.624Z,2.25
2023-03-29T02:57:06.586Z,2.30
2023-03-29T02:59:33.954Z,2.50
2023-03-29T03:02:01.276Z,2.30
2023-03-29T03:04:29.544Z,2.42
2023-03-29T03:06:56.196Z,2.50
2023-03-29T03:09:23.501Z,2.50
2023-03-29T03:11:50.299Z,2.40
2023-03-29T03:14:18.880Z,2.60
2023-03-29T03:16:45.911Z,2.50
2023-03-29T03:19:13.381Z,2.45
2023-03-29T03:21:40.099Z,2.38
2023-03-29T03:24:07.725Z,2.33
2023-03-29T03:26:35.993Z,2.70
2023-03-29T03:29:03.789Z,2.42
2023-03-29T03:31:54.145Z,2.33
2023-03-29T03:34:52.810Z,2.50
2023-03-29T03:37:22.672Z,2.35
2023-03-29T03:39:49.390Z,2.50
2023-03-29T03:42:16.864Z,2.30
2023-03-29T03:44:45.358Z,2.47
2023-03-29T03:47:32.387Z,2.38
2023-03-29T03:50:13.860Z,2.63
2023-03-29T03:52:41.076Z,2.50
2023-03-29T03:55:09.398Z,2.05
2023-03-29T03:57:43.308Z,2.40
2023-03-29T04:00:19.452Z,2.50
2023-03-29T04:02:54.604Z,2.50
2023-03-29T04:05:21.515Z,2.72
2023-03-29T04:07:48.876Z,2.80
2023-03-29T04:10:34.353Z,2.60
2023-03-29T04:13:11.969Z,2.50
2023-03-29T04:16:01.396Z,2.15
2023-03-29T04:18:28.924Z,2.30
2023-03-29T04:21:00.015Z,2.45
2023-03-29T04:23:28.929Z,2.22
2023-03-29T04:25:56.616Z,2.30
2023-03-29T04:28:42.520Z,2.40
2023-03-29T04:31:23.352Z,2.47
2023-03-29T04:34:00.499Z,2.50
2023-03-29T04:36:28.550Z,2.55
2023-03-29T04:38:55.375Z,2.20
2023-03-29T04:41:23.944Z,2.50
2023-03-29T04:43:59.353Z,2.42
2023-03-29T04:46:30.066Z,2.28
2023-03-29T04:49:16.337Z,2.28
2023-03-29T04:51:47.755Z,1.88
2023-03-29T04:54:20.249Z,2.40
2023-03-29T04:57:22.406Z,2.33
2023-03-29T04:59:59.313Z,2.20
2023-03-29T05:02:58.807Z,2.30
2023-03-29T05:05:27.175Z,2.22
2023-03-29T05:07:56.006Z,2.28
2023-03-29T05:10:29.061Z,2.42
2023-03-29T05:12:56.329Z,2.50
2023-03-29T05:15:23.467Z,2.50
2023-03-29T05:17:50.246Z,2.22
2023-03-29T05:20:17.652Z,3.15
2023-03-29T05:22:47.170Z,2.42
2023-03-29T05:25:27.387Z,2.80
2023-03-29T05:27:54.070Z,3.25
2023-03-29T05:30:21.199Z,3.38
2023-03-29T05:32:51.700Z,3.33
2023-03-29T05:35:25.516Z,3.30
2023-03-29T05:37:56.585Z,3.50
2023-03-29T05:40:26.265Z,3.08
2023-03-29T05:43:12.128Z,3.28
2023-03-29T05:45:39.150Z,3.33
2023-03-29T05:48:06.217Z,3.47
2023-03-29T05:50:34.701Z,2.83
2023-03-29T05:53:01.533Z,3.28
2023-03-29T05:55:28.264Z,3.10
2023-03-29T05:57:55.679Z,3.17
2023-03-29T06:00:26.837Z,2.78
2023-03-29T06:03:17.972Z,2.72
2023-03-29T06:05:49.665Z,3.03
2023-03-29T06:08:17.278Z,3.15
2023-03-29T06:11:05.120Z,3.47
2023-03-29T06:13:50.431Z,3.40
2023-03-29T06:16:17.265Z,2.85
2023-03-29T06:18:44.895Z,3.38
2023-03-29T06:21:15.050Z,2.80
2023-03-29T06:23:41.922Z,3.28
2023-03-29T06:26:10.583Z,3.00
2023-03-29T06:28:38.693Z,2.90
2023-03-29T06:31:06.032Z,2.97
2023-03-29T06:33:38.235Z,3.13
2023-03-29T06:36:25.653Z,3.00
2023-03-29T06:38:52.584Z,3.25
2023-03-29T06:41:57.949Z,2.97
2023-03-29T06:44:49.833Z,2.85
2023-03-29T06:47:19.481Z,2.90
2023-03-29T06:49:46.232Z,3.00
2023-03-29T06:52:33.442Z,3.08
2023-03-29T06:55:01.924Z,2.70
2023-03-29T06:57:29.411Z,3.00
2023-03-29T06:59:56.307Z,2.80
2023-03-29T07:02:30.660Z,2.80
2023-03-29T07:05:06.986Z,2.63
2023-03-29T07:08:11.217Z,2.80
2023-03-29T07:10:56.285Z,2.60
2023-03-29T07:13:43.646Z,2.70
2023-03-29T07:16:14.053Z,2.80
2023-03-29T07:19:04.632Z,2.60
2023-03-29T07:21:57.132Z,2.47
2023-03-29T07:24:35.025Z,2.30
2023-03-29T07:27:04.470Z,2.20
2023-03-29T07:29:32.916Z,2.50
2023-03-29T07:32:00.315Z,2.45
2023-03-29T07:34:50.083Z,2.15
2023-03-29T07:37:25.442Z,2.40
2023-03-29T07:39:53.708Z,2.25
2023-03-29T07:42:29.487Z,2.30
2023-03-29T07:44:56.771Z,2.00
2023-03-29T07:47:23.661Z,2.35
2023-03-29T07:49:50.691Z,2.10
2023-03-29T07:52:18.204Z,2.08
2023-03-29T07:54:45.369Z,1.90
2023-03-29T07:57:30.333Z,2.00
2023-03-29T07:59:58.854Z,1.88
2023-03-29T08:02:29.130Z,1.95
2023-03-29T08:05:01.664Z,1.90
2023-03-29T08:07:49.743Z,1.90
2023-03-29T08:10:26.610Z,1.80
2023-03-29T08:13:13.880Z,1.80
2023-03-29T08:16:01.120Z,1.75
2023-03-29T08:18:35.688Z,1.70
2023-03-29T08:21:05.514Z,1.80
2023-03-29T08:23:32.686Z,1.60
2023-03-29T08:26:05.472Z,1.70
2023-03-29T08:28:33.573Z,1.40
2023-03-29T08:31:01.319Z,1.33
2023-03-29T08:33:28.449Z,1.35
2023-03-29T08:36:18.366Z,1.60
2023-03-29T08:38:45.927Z,1.60
2023-03-29T08:41:36.716Z,1.50
2023-03-29T08:44:20.417Z,1.40
2023-03-29T08:47:26.010Z,1.33
2023-03-29T08:52:41.703Z,1.27
2023-03-29T08:55:43.071Z,1.42
2023-03-29T08:58:45.729Z,1.30
2023-03-29T09:01:12.900Z,1.70
2023-03-29T09:04:00.624Z,1.50
2023-03-29T09:06:41.122Z,1.30
2023-03-29T09:09:21.850Z,1.15
2023-03-29T09:12:27.943Z,1.40
2023-03-29T09:14:57.582Z,1.40
2023-03-29T09:17:49.677Z,1.23
2023-03-29T09:20:33.786Z,1.55
2023-03-29T09:23:15.393Z,1.40
2023-03-29T09:26:37.007Z,1.30
2023-03-29T09:30:00.756Z,1.15
2023-03-29T09:32:56.678Z,1.20
2023-03-29T09:35:43.895Z,1.20
2023-03-29T09:38:15.948Z,1.27
2023-03-29T09:41:13.431Z,1.33
2023-03-29T09:43:41.823Z,1.20
2023-03-29T09:46:30.784Z,1.27
2023-03-29T09:48:57.552Z,1.00
2023-03-29T09:51:27.115Z,1.30
2023-03-29T09:53:56.648Z,1.30
2023-03-29T09:56:46.653Z,1.00
2023-03-29T09:59:17.303Z,1.42
2023-03-29T10:01:46.855Z,1.40
2023-03-29T10:04:16.894Z,1.30
2023-03-29T10:06:50.403Z,1.17
2023-03-29T10:09:23.360Z,1.13
2023-03-29T10:11:56.919Z,1.33
2023-03-29T10:14:32.691Z,1.42
2023-03-29T10:16:59.829Z,1.45
2023-03-29T10:19:34.943Z,1.40
2023-03-29T10:24:32.963Z,1.15
2023-03-29T10:27:10.941Z,1.20
2023-03-29T10:29:41.276Z,1.20
2023-03-29T10:32:24.735Z,1.40
2023-03-29T10:34:52.160Z,1.15
2023-03-29T10:37:19.591Z,1.30
2023-03-29T10:39:48.083Z,1.20
2023-03-29T10:42:19.942Z,1.30
2023-03-29T10:44:58.187Z,1.25
2023-03-29T10:47:25.964Z,1.13
2023-03-29T10:49:56.623Z,1.00
2023-03-29T10:52:24.261Z,1.23
2023-03-29T10:54:53.066Z,1.20
2023-03-29T10:57:56.296Z,1.10
2023-03-29T11:00:47.761Z,1.20
2023-03-29T11:03:21.754Z,1.38
2023-03-29T11:05:58.672Z,1.20
2023-03-29T11:08:34.981Z,1.00
2023-03-29T11:11:44.462Z,1.17
2023-03-29T11:14:34.646Z,1.00
2023-03-29T11:17:05.897Z,1.10
2023-03-29T11:20:04.980Z,1.30
2023-03-29T11:22:38.438Z,1.13
2023-03-29T11:25:40.067Z,1.00
2023-03-29T11:28:25.066Z,0.98
2023-03-29T11:31:05.713Z,1.00
2023-03-29T11:33:42.374Z,1.10
2023-03-29T11:36:31.790Z,1.13
2023-03-29T11:39:11.386Z,1.08
2023-03-29T11:41:40.594Z,1.10
2023-03-29T11:44:31.923Z,1.27
2023-03-29T11:47:30.708Z,1.20
2023-03-29T11:50:00.782Z,0.90
2023-03-29T11:52:33.752Z,1.17
2023-03-29T11:55:07.492Z,1.00
2023-03-29T11:57:40.689Z,1.00
2023-03-29T12:00:14.662Z,0.80
2023-03-29T12:02:47.995Z,1.00
2023-03-29T12:05:33.369Z,1.08
2023-03-29T12:08:01.577Z,0.95
2023-03-29T12:10:38.120Z,0.95
2023-03-29T12:13:07.896Z,1.02
2023-03-29T12:15:38.724Z,1.02
2023-03-29T12:18:22.685Z,0.93
2023-03-29T12:20:53.854Z,1.00
2023-03-29T12:23:20.628Z,1.10
2023-03-29T12:25:47.680Z,0.90
2023-03-29T12:28:44.916Z,0.90
2023-03-29T12:31:41.273Z,1.00
2023-03-29T12:34:24.495Z,0.95
2023-03-29T12:37:01.553Z,1.00
2023-03-29T12:39:49.219Z,0.80
2023-03-29T12:42:34.484Z,0.90
2023-03-29T12:45:37.621Z,0.93
2023-03-29T12:48:05.133Z,0.80
2023-03-29T12:50:46.123Z,0.80
2023-03-29T12:53:22.185Z,0.95
2023-03-29T12:55:51.103Z,0.70
2023-03-29T12:58:24.875Z,0.85
2023-03-29T13:01:06.179Z,0.80
2023-03-29T13:03:51.742Z,0.80
2023-03-29T13:06:47.659Z,0.77
2023-03-29T13:12:04.228Z,0.75
2023-03-29T13:14:33.399Z,0.90
2023-03-29T13:17:26.050Z,0.82
2023-03-29T13:20:04.046Z,0.90
2023-03-29T13:22:55.828Z,0.70
2023-03-29T13:25:38.462Z,0.85
2023-03-29T13:28:14.106Z,0.80
2023-03-29T13:31:12.435Z,0.70
2023-03-29T13:33:45.589Z,0.77
2023-03-29T13:36:54.151Z,0.80
2023-03-29T13:39:25.368Z,0.88
2023-03-29T13:41:54.327Z,0.93
2023-03-29T13:44:34.094Z,0.82
2023-03-29T13:47:14.344Z,0.93
2023-03-29T13:49:43.637Z,0.80
2023-03-29T13:52:19.849Z,0.90
2023-03-29T13:54:54.075Z,0.98
2023-03-29T13:57:25.565Z,0.80
2023-03-29T14:00:00.078Z,1.10
2023-03-29T14:02:32.710Z,1.00
2023-03-29T14:05:01.966Z,1.00
2023-03-29T14:07:30.506Z,1.00
2023-03-29T14:09:58.666Z,1.00
2023-03-29T14:12:31.011Z,0.95
2023-03-29T14:15:02.086Z,0.80
2023-03-29T14:17:29.245Z,0.75
2023-03-29T14:19:58.916Z,0.80
2023-03-29T14:22:30.692Z,0.90
2023-03-29T14:25:02.013Z,1.00
2023-03-29T14:27:32.099Z,0.77
2023-03-29T14:29:58.861Z,0.90
2023-03-29T14:32:30.386Z,0.75
2023-03-29T14:34:57.962Z,0.80
2023-03-29T14:37:29.100Z,0.77
2023-03-29T14:39:56.542Z,0.82
2023-03-29T14:42:28.365Z,0.80
2023-03-29T14:45:04.216Z,0.70
2023-03-29T14:47:32.290Z,0.80
2023-03-29T14:50:00.960Z,0.70
2023-03-29T14:52:29.270Z,0.70
2023-03-29T14:54:57.148Z,0.70
2023-03-29T14:57:27.246Z,0.80
2023-03-29T14:59:55.802Z,0.80
2023-03-29T15:02:27.562Z,0.73
2023-03-29T15:05:05.385Z,0.90
2023-03-29T15:07:36.900Z,0.70
2023-03-29T15:10:06.526Z,0.70
2023-03-29T15:12:34.018Z,0.80
2023-03-29T15:15:01.467Z,0.85
2023-03-29T15:17:46.994Z,1.08
2023-03-29T15:20:23.218Z,1.13
2023-03-29T15:23:02.283Z,1.30
2023-03-29T15:25:42.362Z,1.40
2023-03-29T15:28:28.400Z,1.40
2023-03-29T15:31:07.704Z,1.30
2023-03-29T15:33:37.531Z,1.23
2023-03-29T15:36:06.411Z,1.30
2023-03-29T15:38:43.287Z,1.10
2023-03-29T15:41:11.910Z,1.00
2023-03-29T15:43:38.588Z,1.00
2023-03-29T15:46:05.476Z,0.93
2023-03-29T15:48:33.818Z,0.90
2023-03-29T15:51:05.493Z,0.90
2023-03-29T15:53:33.323Z,1.00
2023-03-29T15:56:01.671Z,0.98
2023-03-29T15:58:30.913Z,0.73
2023-03-29T16:01:02.613Z,0.80
2023-03-29T16:03:29.729Z,0.85
2023-03-29T16:05:57.010Z,0.90
2023-03-29T16:08:25.088Z,1.10
2023-03-29T16:10:51.914Z,0.90
2023-03-29T16:13:18.630Z,0.90
2023-03-29T16:15:46.025Z,0.80
2023-03-29T16:18:12.656Z,0.90
2023-03-29T16:20:39.386Z,1.00
2023-03-29T16:23:09.767Z,0.98
2023-03-29T16:25:38.411Z,1.00
2023-03-29T16:28:05.739Z,0.80
2023-03-29T16:30:32.677Z,1.00
2023-03-29T16:32:59.621Z,0.90
2023-03-29T16:35:32.124Z,0.63
2023-03-29T16:37:58.945Z,0.80
2023-03-29T16:40:26.038Z,0.90
2023-03-29T16:42:52.778Z,1.00
2023-03-29T16:45:19.880Z,0.90
2023-03-29T16:47:47.155Z,0.93
2023-03-29T16:50:16.074Z,0.80
2023-03-29T16:52:42.840Z,0.90
2023-03-29T16:55:15.163Z,1.00
2023-03-29T16:57:42.647Z,0.90
2023-03-29T17:00:15.859Z,1.00
2023-03-29T17:02:51.865Z,1.00
2023-03-29T17:05:18.930Z,0.85
2023-03-29T17:07:45.661Z,0.82
2023-03-29T17:10:13.356Z,0.80
2023-03-29T17:12:40.272Z,0.82
2023-03-29T17:15:08.039Z,1.17
2023-03-29T17:17:35.317Z,1.02
2023-03-29T17:20:02.108Z,0.90
2023-03-29T17:22:28.736Z,0.88
2023-03-29T17:24:55.500Z,0.73
2023-03-29T17:27:22.250Z,0.80
2023-03-29T17:29:49.026Z,0.77
2023-03-29T17:32:15.718Z,1.00
2023-03-29T17:34:42.445Z,0.80
2023-03-29T17:37:09.669Z,0.90
2023-03-29T17:39:37.548Z,0.95
2023-03-29T17:42:04.992Z,0.90
2023-03-29T17:44:33.338Z,0.75
2023-03-29T17:47:00.917Z,0.82
2023-03-29T17:49:27.869Z,1.00
2023-03-29T17:51:54.573Z,0.80
2023-03-29T17:54:21.420Z,0.80
2023-03-29T17:56:48.903Z,0.80
2023-03-29T17:59:15.921Z,0.98
2023-03-29T18:01:43.009Z,0.90
2023-03-29T18:04:09.844Z,0.90
2023-03-29T18:06:36.540Z,1.00
2023-03-29T18:09:03.518Z,0.90
2023-03-29T18:11:30.816Z,0.93
2023-03-29T18:14:01.060Z,1.05
2023-03-29T18:16:27.951Z,0.90
2023-03-29T18:18:54.725Z,0.88
2023-03-29T18:21:21.989Z,0.80
2023-03-29T18:23:49.221Z,1.00
2023-03-29T18:26:16.860Z,1.10
2023-03-29T18:28:49.468Z,1.00
2023-03-29T18:31:16.576Z,1.00
2023-03-29T18:33:43.429Z,1.00
2023-03-29T18:36:13.176Z,1.00
2023-03-29T18:38:43.280Z,1.02
2023-03-29T18:41:12.193Z,0.93
2023-03-29T18:43:40.561Z,1.00
2023-03-29T18:46:08.151Z,1.40
2023-03-29T18:48:41.156Z,1.52
2023-03-29T18:51:09.476Z,1.10
2023-03-29T18:53:36.976Z,1.25
2023-03-29T18:56:04.405Z,1.50
2023-03-29T18:58:31.331Z,1.50
2023-03-29T19:01:03.701Z,1.30
2023-03-29T19:03:31.727Z,1.30
2023-03-29T19:05:58.687Z,1.30
2023-03-29T19:08:26.357Z,1.50
2023-03-29T19:10:59.827Z,1.50
2023-03-29T19:13:27.092Z,1.52
2023-03-29T19:15:53.749Z,1.80
2023-03-29T19:18:20.477Z,2.15
2023-03-29T19:20:50.976Z,1.90
2023-03-29T19:23:18.372Z,1.67
2023-03-29T19:25:54.704Z,1.80
2023-03-29T19:28:21.963Z,1.70
2023-03-29T19:30:49.179Z,1.85
2023-03-29T19:33:16.229Z,2.08
2023-03-29T19:35:43.390Z,1.70
2023-03-29T19:38:10.097Z,1.80
2023-03-29T19:40:36.775Z,1.60
2023-03-29T19:43:04.091Z,1.63
2023-03-29T19:45:30.925Z,1.58
2023-03-29T19:48:02.536Z,1.75
2023-03-29T19:50:31.643Z,1.58
2023-03-29T19:52:58.567Z,1.70
2023-03-29T19:55:26.001Z,1.70
2023-03-29T19:57:52.635Z,1.60
2023-03-29T20:00:24.365Z,1.77
2023-03-29T20:02:52.437Z,1.65
2023-03-29T20:05:20.231Z,1.80
2023-03-29T20:07:46.969Z,2.10
2023-03-29T20:10:13.741Z,1.92
2023-03-29T20:12:40.702Z,1.90
2023-03-29T20:15:07.932Z,1.85
2023-03-29T20:17:35.651Z,2.00
2023-03-29T20:20:07.396Z,2.05
2023-03-29T20:22:34.063Z,1.90
2023-03-29T20:25:00.751Z,1.80
2023-03-29T20:27:29.424Z,1.92
2023-03-29T20:29:56.102Z,2.00
2023-03-29T20:32:23.266Z,2.00
2023-03-29T20:34:49.951Z,2.00
2023-03-29T20:37:16.669Z,1.92
2023-03-29T20:39:43.340Z,1.90
2023-03-29T20:42:10.053Z,1.92
2023-03-29T20:44:39.161Z,2.20
2023-03-29T20:47:08.120Z,2.15
2023-03-29T20:49:39.314Z,2.20
2023-03-29T20:52:17.612Z,2.10
2023-03-29T20:54:45.308Z,2.15
2023-03-29T20:57:14.658Z,2.05
2023-03-29T20:59:42.959Z,2.35
2023-03-29T21:02:19.010Z,2.15
2023-03-29T21:04:49.833Z,2.20
2023-03-29T21:07:17.182Z,2.17
2023-03-29T21:09:43.969Z,2.13
2023-03-29T21:12:10.937Z,2.22
2023-03-29T21:14:37.919Z,2.35
2023-03-29T21:17:04.594Z,2.63
2023-03-29T21:19:31.246Z,2.65
2023-03-29T21:21:58.128Z,3.13
2023-03-29T21:24:24.844Z,3.00
2023-03-29T21:26:51.561Z,3.40
2023-03-29T21:29:18.258Z,3.40
2023-03-29T21:31:45.177Z,3.38
2023-03-29T21:34:11.889Z,3.00
2023-03-29T21:36:39.822Z,3.67
2023-03-29T21:39:06.868Z,3.20
2023-03-29T21:41:33.633Z,3.08
2023-03-29T21:44:00.368Z,3.38
2023-03-29T21:46:27.172Z,3.10
2023-03-29T21:48:53.911Z,3.17
2023-03-29T21:51:20.754Z,3.33
2023-03-29T21:53:47.571Z,3.38
2023-03-29T21:56:14.371Z,2.90
2023-03-29T21:58:41.594Z,3.25
2023-03-29T22:01:10.183Z,3.08
2023-03-29T22:03:37.955Z,3.40
2023-03-29T22:06:10.550Z,3.17
2023-03-29T22:08:38.953Z,3.58
2023-03-29T22:11:08.944Z,3.20
2023-03-29T22:13:36.032Z,3.50
2023-03-29T22:16:04.020Z,3.40
2023-03-29T22:18:42.365Z,3.30
2023-03-29T22:21:12.567Z,3.00
2023-03-29T22:23:42.865Z,3.30
2023-03-29T22:26:11.300Z,3.10
2023-03-29T22:28:39.204Z,3.25
2023-03-29T22:31:08.441Z,3.60
2023-03-29T22:33:35.992Z,3.60
2023-03-29T22:36:11.688Z,2.88
2023-03-29T22:38:38.841Z,3.40
2023-03-29T22:41:06.541Z,3.50
2023-03-29T22:43:33.202Z,3.30
2023-03-29T22:45:59.921Z,3.30
2023-03-29T22:48:26.731Z,3.47
2023-03-29T22:50:53.562Z,3.45
2023-03-29T22:53:20.252Z,3.67
2023-03-29T22:55:46.918Z,3.25
2023-03-29T22:58:13.605Z,3.88
2023-03-29T23:00:40.643Z,3.40
2023-03-29T23:03:07.286Z,3.70
2023-03-29T23:05:34.194Z,3.40
2023-03-29T23:08:01.025Z,3.25
2023-03-29T23:10:29.219Z,3.50
2023-03-29T23:13:09.983Z,3.45
2023-03-29T23:15:38.112Z,3.50
2023-03-29T23:18:05.753Z,3.78
2023-03-29T23:20:32.684Z,3.63
2023-03-29T23:22:59.801Z,3.90
2023-03-29T23:25:27.839Z,3.80
2023-03-29T23:27:54.752Z,3.50
2023-03-29T23:30:21.710Z,3.85
2023-03-29T23:32:49.537Z,4.15
2023-03-29T23:35:16.666Z,3.85
2023-03-29T23:37:43.553Z,3.65
2023-03-29T23:40:11.866Z,3.88
2023-03-29T23:42:39.294Z,3.90
2023-03-29T23:45:08.238Z,3.55
2023-03-29T23:47:35.541Z,3.88
2023-03-29T23:50:02.857Z,3.65
2023-03-29T23:52:32.620Z,3.60
2023-03-29T23:55:00.684Z,3.80
2023-03-29T23:57:28.413Z,3.80
2023-03-29T23:59:55.996Z,3.80
